Blessing — WDI5247 — position and weather

sailwx.info

Track history (hours):
 
Tides and Currents Weather Stations Pressure Air Temp Water Temp Dewpoint Dewpoint Depression Visibility Wind Speed Wind Dir Waves Ship Positions

Blessing

Owner: Madden, James J, Seattle, WA. More information available from US FCC via Universal Licensing System and Coast Guard Vessel Documentation Center.

Last reported at 2017-Sep-23 23:56 UTC. Time now 2017-Oct-19 03:53 UTC.
Position N 47°40' W 122°23'.
Warning: this ship's position is 25 days out of date.

Length 13 m.

Type: Sailing vessel. MMSI: 367706630.

Date/timePositionNaut miles runAvg speedWind from/ knotsBaromVisibWave heightAir tempDewpointWater temp
2017-Sep-23 23:56N 47°40' W 122°23'0 0.0
2017-Sep-23 23:30N 47°40' W 122°23'1 1.3
2017-Sep-23 22:58N 47°40' W 122°24'1 1.1
2017-Sep-23 22:30N 47°40' W 122°25'1 1.9
2017-Sep-23 22:01N 47°41' W 122°24'1 2.3
2017-Sep-23 21:29N 47°41' W 122°26'1 1.6
2017-Sep-23 21:00N 47°41' W 122°25'1 2.8
2017-Sep-23 20:30N 47°40' W 122°24'0 0.1
2017-Sep-23 19:59N 47°40' W 122°24'  
2017-Sep-16 01:15N 47°41' W 122°24'0 0.0
2017-Sep-16 01:00N 47°41' W 122°24'2 3.5
2017-Sep-16 00:30N 47°43' W 122°25'4 7.1
2017-Sep-16 00:00N 47°46' W 122°25'4 7.3
2017-Sep-15 23:30N 47°50' W 122°26'4 7.0
2017-Sep-15 23:00N 47°53' W 122°27'3 6.5
2017-Sep-15 22:30N 47°56' W 122°29'38 6.7
2017-Sep-15 16:53N 48°08' W 123°23'  
Track history (hours):
 
Tides and Currents Weather Stations Pressure Air Temp Water Temp Dewpoint Dewpoint Depression Visibility Wind Speed Wind Dir Waves Ship Positions

Blessing

Owner: Madden, James J, Seattle, WA. More information available from US FCC via Universal Licensing System and Coast Guard Vessel Documentation Center.

Last reported at 2017-Sep-23 23:56 UTC. Time now 2017-Oct-19 03:53 UTC.
Position N 47°40' W 122°23'.
Warning: this ship's position is 25 days out of date.

Length 13 m.

Type: Sailing vessel. MMSI: 367706630.

Date/timePositionNaut miles runAvg speedWind from/ knotsBaromVisibWave heightAir tempDewpointWater temp
2017-Sep-23 23:56N 47°40' W 122°23'0 0.0
2017-Sep-23 23:30N 47°40' W 122°23'1 1.3
2017-Sep-23 22:58N 47°40' W 122°24'1 1.1
2017-Sep-23 22:30N 47°40' W 122°25'1 1.9
2017-Sep-23 22:01N 47°41' W 122°24'1 2.3
2017-Sep-23 21:29N 47°41' W 122°26'1 1.6
2017-Sep-23 21:00N 47°41' W 122°25'1 2.8
2017-Sep-23 20:30N 47°40' W 122°24'0 0.1
2017-Sep-23 19:59N 47°40' W 122°24'  
2017-Sep-16 01:15N 47°41' W 122°24'0 0.0
2017-Sep-16 01:00N 47°41' W 122°24'2 3.5
2017-Sep-16 00:30N 47°43' W 122°25'4 7.1
2017-Sep-16 00:00N 47°46' W 122°25'4 7.3
2017-Sep-15 23:30N 47°50' W 122°26'4 7.0
2017-Sep-15 23:00N 47°53' W 122°27'3 6.5
2017-Sep-15 22:30N 47°56' W 122°29'38 6.7
2017-Sep-15 16:53N 48°08' W 123°23'  

Dump ship's entire track history